Legend Of The Seas — C6SL5 — position and weather

sailwx.info

Track history (hours):
 
Tides and Currents Weather Stations Pressure Air Temp Water Temp Dewpoint Dewpoint Depression Visibility Wind Speed Wind Dir Waves Ship Positions

Legend Of The Seas

Operator: Royal Caribbean Cruises Ltd

Last reported at 2015-Apr-15 03:21 UTC. Time now 2015-Apr-28 06:45 UTC.
Position N 32°12' W 117°20'.
Warning: this ship's position is 13 days out of date.

Type: Passenger vessel. MMSI: 311378000.

Date/timePositionNaut miles runAvg speedWind from/ knotsBaromVisibWave heightAir tempDewpointWater temp
2015-Apr-15 03:21N 32°12' W 117°20'1519.0
2015-Apr-15 02:33N 32°27' W 117°21'1514.9
2015-Apr-15 01:33N 32°41' W 117°14'4 3.5
2015-Apr-15 00:33N 32°43' W 117°10'0 0.0
2015-Apr-14 23:33N 32°43' W 117°10'0 0.1
2015-Apr-14 22:33N 32°43' W 117°10'0 0.1
2015-Apr-14 21:33N 32°43' W 117°10'0 0.0
2015-Apr-14 20:33N 32°43' W 117°10'0 0.1
2015-Apr-14 19:33N 32°43' W 117°10'0 0.1
2015-Apr-14 18:33N 32°43' W 117°10'0 0.1
2015-Apr-14 17:33N 32°43' W 117°10'0 0.0
2015-Apr-14 16:33N 32°43' W 117°10'0 0.0
2015-Apr-14 15:30N 32°43' W 117°10'0 0.0
2015-Apr-14 14:33N 32°43' W 117°10'0 0.1
2015-Apr-14 13:33N 32°43' W 117°10'1 1.0
2015-Apr-14 12:33N 32°43' W 117°12'1010.3
2015-Apr-14 11:33N 32°34' W 117°16'1918.9
2015-Apr-14 10:33N 32°15' W 117°20'  
2015-Apr-11 20:29N 20°37' W 105°22'7 7.4
2015-Apr-11 19:31N 20°39' W 105°15'0 0.0
2015-Apr-11 18:31N 20°39' W 105°15'0 0.0
2015-Apr-11 17:31N 20°39' W 105°15'0 0.0
2015-Apr-11 16:31N 20°39' W 105°15'0 0.0
2015-Apr-11 15:31N 20°39' W 105°15'0 0.0
2015-Apr-11 14:31N 20°39' W 105°15'0 0.0
2015-Apr-11 13:31N 20°39' W 105°15'  
Track history (hours):
 
Tides and Currents Weather Stations Pressure Air Temp Water Temp Dewpoint Dewpoint Depression Visibility Wind Speed Wind Dir Waves Ship Positions

Legend Of The Seas

Operator: Royal Caribbean Cruises Ltd

Last reported at 2015-Apr-15 03:21 UTC. Time now 2015-Apr-28 06:45 UTC.
Position N 32°12' W 117°20'.
Warning: this ship's position is 13 days out of date.

Type: Passenger vessel. MMSI: 311378000.

Date/timePositionNaut miles runAvg speedWind from/ knotsBaromVisibWave heightAir tempDewpointWater temp
2015-Apr-15 03:21N 32°12' W 117°20'1519.0
2015-Apr-15 02:33N 32°27' W 117°21'1514.9
2015-Apr-15 01:33N 32°41' W 117°14'4 3.5
2015-Apr-15 00:33N 32°43' W 117°10'0 0.0
2015-Apr-14 23:33N 32°43' W 117°10'0 0.1
2015-Apr-14 22:33N 32°43' W 117°10'0 0.1
2015-Apr-14 21:33N 32°43' W 117°10'0 0.0
2015-Apr-14 20:33N 32°43' W 117°10'0 0.1
2015-Apr-14 19:33N 32°43' W 117°10'0 0.1
2015-Apr-14 18:33N 32°43' W 117°10'0 0.1
2015-Apr-14 17:33N 32°43' W 117°10'0 0.0
2015-Apr-14 16:33N 32°43' W 117°10'0 0.0
2015-Apr-14 15:30N 32°43' W 117°10'0 0.0
2015-Apr-14 14:33N 32°43' W 117°10'0 0.1
2015-Apr-14 13:33N 32°43' W 117°10'1 1.0
2015-Apr-14 12:33N 32°43' W 117°12'1010.3
2015-Apr-14 11:33N 32°34' W 117°16'1918.9
2015-Apr-14 10:33N 32°15' W 117°20'  
2015-Apr-11 20:29N 20°37' W 105°22'7 7.4
2015-Apr-11 19:31N 20°39' W 105°15'0 0.0
2015-Apr-11 18:31N 20°39' W 105°15'0 0.0
2015-Apr-11 17:31N 20°39' W 105°15'0 0.0
2015-Apr-11 16:31N 20°39' W 105°15'0 0.0
2015-Apr-11 15:31N 20°39' W 105°15'0 0.0
2015-Apr-11 14:31N 20°39' W 105°15'0 0.0
2015-Apr-11 13:31N 20°39' W 105°15'  

Dump ship's entire track history